Time,TemperatureF,DewpointF,PressureIn,WindDirection,WindDirectionDegrees,WindSpeedMPH,WindSpeedGustMPH,Humidity,HourlyPrecipIn,Conditions,Clouds,dailyrainin,SoftwareType,DateUTC
2013-02-17 00:00:00,29.3,15.0,29.78,North,0,1.6,3.1,42,0.00,,,0.05,fowsr,2013-02-17 05:00:00,
2013-02-17 00:10:00,29.1,14.5,29.77,NE,45,2.2,5.4,41,0.00,,,0.05,fowsr,2013-02-17 05:10:00,
2013-02-17 00:15:00,28.9,14.3,29.77,South,180,1.6,2.2,41,0.00,,,0.05,fowsr,2013-02-17 05:15:00,
2013-02-17 00:20:00,28.9,14.3,29.77,North,0,4.5,9.2,41,0.00,,,0.05,fowsr,2013-02-17 05:20:00,
2013-02-17 00:25:00,28.8,12.6,29.77,North,0,2.2,4.5,37,0.00,,,0.05,fowsr,2013-02-17 05:25:00,
2013-02-17 00:35:00,28.8,13.0,29.77,North,0,3.1,6.9,38,0.00,,,0.04,fowsr,2013-02-17 05:35:00,
2013-02-17 00:40:00,28.6,12.9,29.77,NE,45,4.5,8.3,38,0.00,,,0.04,fowsr,2013-02-17 05:40:00,
2013-02-17 00:45:00,28.6,12.4,29.77,NE,45,5.4,13.0,37,0.00,,,0.04,fowsr,2013-02-17 05:45:00,
2013-02-17 00:50:00,28.4,12.3,29.77,East,90,3.1,6.0,37,0.00,,,0.04,fowsr,2013-02-17 05:50:00,
2013-02-17 00:55:00,28.4,12.3,29.77,North,0,3.8,4.5,37,0.00,,,0.02,fowsr,2013-02-17 05:55:00,
2013-02-17 01:05:00,28.2,10.4,29.76,NW,315,3.8,6.9,33,0.00,,,0.02,fowsr,2013-02-17 06:05:00,
2013-02-17 01:10:00,28.2,10.4,29.76,East,90,5.4,13.0,33,0.00,,,0.02,fowsr,2013-02-17 06:10:00,
2013-02-17 01:15:00,28.0,10.2,29.76,North,0,1.6,3.8,33,0.00,,,0.02,fowsr,2013-02-17 06:15:00,
2013-02-17 01:20:00,28.0,10.2,29.76,West,270,2.2,3.8,33,0.00,,,0.02,fowsr,2013-02-17 06:20:00,
2013-02-17 01:25:00,28.0,10.7,29.76,North,0,1.6,3.1,34,0.00,,,0.01,fowsr,2013-02-17 06:25:00,
2013-02-17 01:30:00,27.9,10.5,29.76,NW,315,6.0,10.7,34,0.00,,,0.01,fowsr,2013-02-17 06:30:00,
2013-02-17 01:35:00,27.9,10.5,29.77,West,270,3.1,6.9,34,0.00,,,0.01,fowsr,2013-02-17 06:35:00,
2013-02-17 01:40:00,27.9,10.1,29.76,North,0,2.2,3.8,33,0.00,,,0.01,fowsr,2013-02-17 06:40:00,
2013-02-17 01:45:00,27.7,9.9,29.76,West,270,4.5,7.6,33,0.00,,,0.01,fowsr,2013-02-17 06:45:00,
2013-02-17 01:50:00,27.7,9.9,29.76,East,90,2.2,4.5,33,0.00,,,0.01,fowsr,2013-02-17 06:50:00,
2013-02-17 01:55:00,27.7,9.9,29.76,NW,315,2.2,4.5,33,0.00,,,0.01,fowsr,2013-02-17 06:55:00,
2013-02-17 02:00:00,27.7,9.9,29.76,NW,315,4.5,11.4,33,0.00,,,0.01,fowsr,2013-02-17 07:00:00,
2013-02-17 02:05:00,27.7,9.9,29.76,North,0,3.8,9.8,33,0.00,,,0.01,fowsr,2013-02-17 07:05:00,
2013-02-17 02:10:00,27.5,9.3,29.76,North,0,5.4,10.7,32,0.00,,,0.01,fowsr,2013-02-17 07:10:00,
2013-02-17 02:15:00,27.5,9.3,29.76,West,270,7.6,10.7,32,0.00,,,0.01,fowsr,2013-02-17 07:15:00,
2013-02-17 02:20:00,27.5,9.3,29.76,NE,45,3.8,6.0,32,0.00,,,0.01,fowsr,2013-02-17 07:20:00,
2013-02-17 02:25:00,27.5,9.3,29.76,North,0,3.1,6.0,32,0.00,,,0.01,fowsr,2013-02-17 07:25:00,
2013-02-17 02:30:00,27.5,9.3,29.76,NE,45,7.6,9.2,32,0.00,,,0.01,fowsr,2013-02-17 07:30:00,
2013-02-17 02:35:00,27.5,9.3,29.75,NE,45,3.1,6.0,32,0.00,,,0.01,fowsr,2013-02-17 07:35:00,
2013-02-17 02:40:00,27.5,8.8,29.75,SW,225,6.9,10.7,31,0.00,,,0.01,fowsr,2013-02-17 07:40:00,
2013-02-17 02:45:00,27.5,9.3,29.75,NW,315,9.2,11.4,32,0.00,,,0.01,fowsr,2013-02-17 07:45:00,
2013-02-17 02:50:00,27.5,8.8,29.75,SE,135,2.2,5.4,31,0.00,,,0.01,fowsr,2013-02-17 07:50:00,
2013-02-17 02:55:00,27.3,9.2,29.75,NE,45,3.1,6.9,32,0.00,,,0.01,fowsr,2013-02-17 07:55:00,
2013-02-17 03:00:00,27.3,9.2,29.75,NE,45,1.6,3.1,32,0.00,,,0.00,fowsr,2013-02-17 08:00:00,
2013-02-17 03:05:00,27.3,9.2,29.75,NE,45,1.6,3.1,32,0.00,,,0.00,fowsr,2013-02-17 08:05:00,
2013-02-17 03:10:00,27.3,9.2,29.76,East,90,4.5,6.9,32,0.00,,,0.00,fowsr,2013-02-17 08:10:00,
2013-02-17 03:15:00,27.3,9.2,29.75,NW,315,6.9,10.7,32,0.00,,,0.00,fowsr,2013-02-17 08:15:00,
2013-02-17 03:20:00,27.1,9.0,29.75,North,0,3.1,5.4,32,0.00,,,0.00,fowsr,2013-02-17 08:20:00,
2013-02-17 03:25:00,27.1,9.0,29.75,North,0,3.1,5.4,32,0.00,,,0.00,fowsr,2013-02-17 08:25:00,
2013-02-17 03:30:00,27.1,9.0,29.76,North,0,3.1,4.5,32,0.00,,,0.00,fowsr,2013-02-17 08:30:00,
2013-02-17 03:35:00,27.1,9.0,29.76,NW,315,2.2,6.9,32,0.00,,,0.00,fowsr,2013-02-17 08:35:00,
2013-02-17 03:40:00,27.1,9.0,29.75,West,270,3.1,6.0,32,0.00,,,0.00,fowsr,2013-02-17 08:40:00,
2013-02-17 03:45:00,27.1,9.0,29.75,North,0,1.6,3.1,32,0.00,,,0.00,fowsr,2013-02-17 08:45:00,
2013-02-17 03:50:00,27.0,8.8,29.75,NE,45,3.8,6.0,32,0.00,,,0.00,fowsr,2013-02-17 08:50:00,
2013-02-17 04:00:00,27.0,7.4,29.74,WNW,292,6.0,8.3,29,0.00,,,0.00,fowsr,2013-02-17 09:00:00,
2013-02-17 04:05:00,27.0,7.4,29.75,NW,315,2.2,3.1,29,0.00,,,0.00,fowsr,2013-02-17 09:05:00,
2013-02-17 04:10:00,27.0,6.4,29.75,NE,45,3.1,7.6,27,0.00,,,0.00,fowsr,2013-02-17 09:10:00,
2013-02-17 04:15:00,27.0,6.4,29.75,SE,135,1.6,4.5,27,0.00,,,0.00,fowsr,2013-02-17 09:15:00,
2013-02-17 04:25:00,26.8,5.1,29.75,North,0,3.8,6.9,25,0.00,,,0.00,fowsr,2013-02-17 09:25:00,
2013-02-17 04:30:00,26.8,5.1,29.75,NE,45,3.8,5.4,25,0.00,,,0.00,fowsr,2013-02-17 09:30:00,
2013-02-17 04:35:00,26.8,5.1,29.75,NE,45,3.8,7.6,25,0.00,,,0.00,fowsr,2013-02-17 09:35:00,
2013-02-17 04:40:00,26.8,4.5,29.75,NE,45,1.6,3.8,24,0.00,,,0.00,fowsr,2013-02-17 09:40:00,
2013-02-17 04:45:00,26.6,4.4,29.75,North,0,3.1,6.0,24,0.00,,,0.00,fowsr,2013-02-17 09:45:00,
2013-02-17 04:50:00,26.6,4.4,29.75,East,90,2.2,3.1,24,0.00,,,0.00,fowsr,2013-02-17 09:50:00,
2013-02-17 04:55:00,26.6,4.4,29.75,NW,315,0.7,3.1,24,0.00,,,0.00,fowsr,2013-02-17 09:55:00,
2013-02-17 05:00:00,26.4,4.8,29.75,NW,315,6.0,12.1,25,0.00,,,0.00,fowsr,2013-02-17 10:00:00,
2013-02-17 05:05:00,26.4,4.8,29.75,NW,315,6.0,12.1,25,0.00,,,0.00,fowsr,2013-02-17 10:05:00,
2013-02-17 05:10:00,26.4,5.4,29.75,SW,225,1.6,2.2,26,0.00,,,0.00,fowsr,2013-02-17 10:10:00,
2013-02-17 05:15:00,26.2,5.7,29.76,SSW,202,1.6,3.1,27,0.00,,,0.00,fowsr,2013-02-17 10:15:00,
2013-02-17 05:20:00,26.2,6.3,29.76,NW,315,1.6,3.8,28,0.00,,,0.00,fowsr,2013-02-17 10:20:00,
2013-02-17 05:25:00,26.1,6.1,29.75,WNW,292,2.2,3.1,28,0.00,,,0.00,fowsr,2013-02-17 10:25:00,
2013-02-17 05:30:00,26.1,6.1,29.76,NE,45,3.8,6.0,28,0.00,,,0.00,fowsr,2013-02-17 10:30:00,
2013-02-17 05:35:00,25.9,6.0,29.76,West,270,3.8,6.0,28,0.00,,,0.00,fowsr,2013-02-17 10:35:00,
2013-02-17 05:40:00,25.7,5.8,29.76,NW,315,3.8,6.9,28,0.00,,,0.00,fowsr,2013-02-17 10:40:00,
2013-02-17 05:45:00,25.7,5.8,29.76,WSW,247,4.5,10.7,28,0.00,,,0.00,fowsr,2013-02-17 10:45:00,
2013-02-17 05:50:00,25.5,5.7,29.76,West,270,2.2,3.1,28,0.00,,,0.00,fowsr,2013-02-17 10:50:00,
2013-02-17 05:55:00,25.3,5.5,29.76,SW,225,2.2,3.1,28,0.00,,,0.00,fowsr,2013-02-17 10:55:00,
2013-02-17 06:00:00,25.3,5.5,29.76,South,180,0.7,2.2,28,0.00,,,0.00,fowsr,2013-02-17 11:00:00,
2013-02-17 06:05:00,25.2,5.3,29.76,WSW,247,1.6,5.4,28,0.00,,,0.00,fowsr,2013-02-17 11:05:00,
2013-02-17 06:10:00,25.2,5.3,29.76,North,0,3.1,4.5,28,0.00,,,0.00,fowsr,2013-02-17 11:10:00,
2013-02-17 06:15:00,25.0,5.7,29.76,NW,315,7.6,9.8,29,0.00,,,0.00,fowsr,2013-02-17 11:15:00,
2013-02-17 06:20:00,25.0,5.7,29.76,SSE,157,1.6,3.1,29,0.00,,,0.00,fowsr,2013-02-17 11:20:00,
2013-02-17 06:25:00,24.8,5.5,29.76,SW,225,3.1,5.4,29,0.00,,,0.00,fowsr,2013-02-17 11:25:00,
2013-02-17 06:30:00,24.8,5.5,29.76,WNW,292,2.2,3.8,29,0.00,,,0.00,fowsr,2013-02-17 11:30:00,
2013-02-17 06:35:00,24.8,5.5,29.76,East,90,0.7,2.2,29,0.00,,,0.00,fowsr,2013-02-17 11:35:00,
2013-02-17 06:40:00,24.6,5.9,29.76,North,0,3.1,7.6,30,0.00,,,0.00,fowsr,2013-02-17 11:40:00,
2013-02-17 06:50:00,24.4,6.2,29.76,North,0,2.2,3.8,31,0.00,,,0.00,fowsr,2013-02-17 11:50:00,
2013-02-17 06:55:00,24.3,6.5,29.76,North,0,1.6,3.8,32,0.00,,,0.00,fowsr,2013-02-17 11:55:00,
2013-02-17 07:00:00,24.3,6.5,29.76,North,0,2.2,6.0,32,0.00,,,0.00,fowsr,2013-02-17 12:00:00,
2013-02-17 07:05:00,24.3,6.5,29.76,SW,225,2.2,3.8,32,0.00,,,0.00,fowsr,2013-02-17 12:05:00,
2013-02-17 07:10:00,24.1,6.3,29.76,SE,135,1.6,2.2,32,0.00,,,0.00,fowsr,2013-02-17 12:10:00,
2013-02-17 07:15:00,24.1,6.8,29.77,SE,135,1.6,3.8,33,0.00,,,0.00,fowsr,2013-02-17 12:15:00,
2013-02-17 07:20:00,24.1,6.8,29.77,SW,225,0.7,3.1,33,0.00,,,0.00,fowsr,2013-02-17 12:20:00,
2013-02-17 07:25:00,24.1,6.8,29.77,West,270,2.2,3.8,33,0.00,,,0.00,fowsr,2013-02-17 12:25:00,
2013-02-17 07:30:00,24.1,10.0,29.78,SSW,202,4.5,10.7,41,0.00,,,0.00,fowsr,2013-02-17 12:30:00,
2013-02-17 07:35:00,23.9,5.3,29.78,NW,315,2.2,4.5,30,0.00,,,0.00,fowsr,2013-02-17 12:35:00,
2013-02-17 07:45:00,23.9,6.2,29.78,West,270,1.6,2.2,32,0.00,,,0.00,fowsr,2013-02-17 12:45:00,
2013-02-17 07:50:00,23.9,6.2,29.79,North,0,6.0,11.4,32,0.00,,,0.00,fowsr,2013-02-17 12:50:00,
2013-02-17 07:55:00,23.9,5.7,29.78,SW,225,2.2,4.5,31,0.00,,,0.00,fowsr,2013-02-17 12:55:00,
2013-02-17 08:00:00,24.1,5.9,29.78,NE,45,2.2,4.5,31,0.00,,,0.00,fowsr,2013-02-17 13:00:00,
2013-02-17 08:05:00,24.3,6.5,29.78,South,180,1.6,3.1,32,0.00,,,0.00,fowsr,2013-02-17 13:05:00,
2013-02-17 08:10:00,24.4,6.7,29.78,NW,315,3.1,6.9,32,0.00,,,0.00,fowsr,2013-02-17 13:10:00,
2013-02-17 08:15:00,24.6,6.4,29.79,NE,45,4.5,8.3,31,0.00,,,0.00,fowsr,2013-02-17 13:15:00,
2013-02-17 08:20:00,25.0,5.7,29.78,North,0,4.5,6.9,29,0.00,,,0.00,fowsr,2013-02-17 13:20:00,
2013-02-17 08:25:00,25.3,6.0,29.78,West,270,4.5,8.3,29,0.00,,,0.00,fowsr,2013-02-17 13:25:00,
2013-02-17 08:30:00,25.5,5.7,29.78,SW,225,4.5,6.0,28,0.00,,,0.00,fowsr,2013-02-17 13:30:00,
2013-02-17 08:35:00,25.5,5.1,29.78,NE,45,3.1,4.5,27,0.00,,,0.00,fowsr,2013-02-17 13:35:00,
2013-02-17 08:40:00,25.7,5.8,29.79,NE,45,1.6,3.8,28,0.00,,,0.00,fowsr,2013-02-17 13:40:00,
2013-02-17 08:45:00,25.9,6.0,29.79,NW,315,6.0,10.7,28,0.00,,,0.00,fowsr,2013-02-17 13:45:00,
2013-02-17 08:50:00,25.9,5.4,29.78,NW,315,3.1,6.0,27,0.00,,,0.00,fowsr,2013-02-17 13:50:00,
2013-02-17 08:55:00,26.2,6.3,29.79,North,0,2.2,4.5,28,0.00,,,0.00,fowsr,2013-02-17 13:55:00,
2013-02-17 09:00:00,26.4,5.9,29.78,North,0,3.8,12.1,27,0.00,,,0.00,fowsr,2013-02-17 14:00:00,
2013-02-17 09:10:00,26.8,5.7,29.78,West,270,5.4,7.6,26,0.00,,,0.00,fowsr,2013-02-17 14:10:00,
2013-02-17 09:15:00,27.0,5.2,29.78,SW,225,3.1,5.4,25,0.00,,,0.00,fowsr,2013-02-17 14:15:00,
2013-02-17 09:20:00,27.0,5.2,29.79,SW,225,3.1,5.4,25,0.00,,,0.00,fowsr,2013-02-17 14:20:00,
2013-02-17 09:25:00,27.0,4.7,29.79,West,270,3.1,6.9,24,0.00,,,0.00,fowsr,2013-02-17 14:25:00,
2013-02-17 09:30:00,27.0,4.1,29.79,NW,315,1.6,3.1,23,0.00,,,0.00,fowsr,2013-02-17 14:30:00,
2013-02-17 09:40:00,27.5,5.1,29.79,NW,315,3.1,9.2,24,0.00,,,0.00,fowsr,2013-02-17 14:40:00,
2013-02-17 09:50:00,27.5,4.5,29.79,NW,315,4.5,7.6,23,0.00,,,0.00,fowsr,2013-02-17 14:50:00,
2013-02-17 10:00:00,27.5,4.5,29.79,NW,315,4.5,12.1,23,0.00,,,0.00,fowsr,2013-02-17 15:00:00,
2013-02-17 10:05:00,28.2,5.1,29.79,SW,225,2.2,5.4,23,0.00,,,0.00,fowsr,2013-02-17 15:05:00,
2013-02-17 10:10:00,28.8,8.4,29.79,West,270,2.2,4.5,28,0.00,,,0.00,fowsr,2013-02-17 15:10:00,
2013-02-17 10:15:00,28.6,7.7,29.79,SW,225,2.2,4.5,27,0.00,,,0.00,fowsr,2013-02-17 15:15:00,
2013-02-17 10:25:00,28.6,8.3,29.80,NW,315,3.8,11.4,28,0.00,,,0.00,fowsr,2013-02-17 15:25:00,
2013-02-17 10:30:00,28.6,7.7,29.80,West,270,3.1,4.5,27,0.00,,,0.00,fowsr,2013-02-17 15:30:00,
2013-02-17 10:35:00,28.8,7.9,29.80,North,0,11.4,19.7,27,0.01,,,0.01,fowsr,2013-02-17 15:35:00,
2013-02-17 10:40:00,28.4,7.0,29.80,South,180,3.8,6.9,26,0.01,,,0.01,fowsr,2013-02-17 15:40:00,
2013-02-17 10:45:00,28.6,7.7,29.80,SSW,202,5.4,11.4,27,0.01,,,0.01,fowsr,2013-02-17 15:45:00,
2013-02-17 10:55:00,29.1,8.2,29.80,SSW,202,1.6,3.1,27,0.01,,,0.01,fowsr,2013-02-17 15:55:00,
2013-02-17 11:00:00,29.7,9.2,29.80,West,270,6.0,11.4,28,0.01,,,0.01,fowsr,2013-02-17 16:00:00,
2013-02-17 11:05:00,29.7,9.2,29.80,West,270,6.0,11.4,28,0.01,,,0.01,fowsr,2013-02-17 16:05:00,
2013-02-17 11:10:00,30.2,9.1,29.80,East,90,5.4,15.2,27,0.01,,,0.01,fowsr,2013-02-17 16:10:00,
2013-02-17 11:15:00,30.4,8.1,29.80,SW,225,3.8,9.2,25,0.01,,,0.01,fowsr,2013-02-17 16:15:00,
2013-02-17 11:20:00,30.4,8.1,29.80,West,270,4.5,9.8,25,0.01,,,0.01,fowsr,2013-02-17 16:20:00,
2013-02-17 11:25:00,31.1,9.3,29.81,West,270,6.0,10.7,26,0.01,,,0.01,fowsr,2013-02-17 16:25:00,
2013-02-17 11:30:00,31.3,8.9,29.80,North,0,4.5,9.2,25,0.01,,,0.01,fowsr,2013-02-17 16:30:00,
2013-02-17 11:35:00,31.3,8.3,29.80,West,270,3.8,6.9,24,0.02,,,0.02,fowsr,2013-02-17 16:35:00,
2013-02-17 11:40:00,32.2,9.6,29.79,West,270,4.5,5.4,25,0.02,,,0.02,fowsr,2013-02-17 16:40:00,
2013-02-17 11:45:00,32.0,8.9,29.80,West,270,3.8,5.4,24,0.01,,,0.02,fowsr,2013-02-17 16:45:00,
2013-02-17 11:50:00,32.2,9.0,29.80,West,270,3.8,7.6,24,0.01,,,0.02,fowsr,2013-02-17 16:50:00,
2013-02-17 11:55:00,31.5,8.4,29.79,SW,225,7.6,12.1,24,0.01,,,0.02,fowsr,2013-02-17 16:55:00,
2013-02-17 12:00:00,31.5,9.6,29.80,West,270,3.8,5.4,26,0.01,,,0.02,fowsr,2013-02-17 17:00:00,
2013-02-17 12:10:00,30.7,8.4,29.80,NW,315,3.8,7.6,25,0.01,,,0.02,fowsr,2013-02-17 17:10:00,
2013-02-17 12:15:00,30.4,8.1,29.80,NW,315,3.1,6.9,25,0.01,,,0.02,fowsr,2013-02-17 17:15:00,
2013-02-17 12:20:00,30.2,7.4,29.80,North,0,5.4,8.3,24,0.01,,,0.02,fowsr,2013-02-17 17:20:00,
2013-02-17 12:25:00,30.2,8.0,29.80,WSW,247,3.8,7.6,25,0.01,,,0.02,fowsr,2013-02-17 17:25:00,
2013-02-17 12:30:00,30.0,9.0,29.80,West,270,5.4,8.3,27,0.01,,,0.02,fowsr,2013-02-17 17:30:00,
2013-02-17 12:35:00,30.9,9.2,29.80,NW,315,4.5,9.2,26,0.01,,,0.02,fowsr,2013-02-17 17:35:00,
2013-02-17 12:40:00,31.1,8.7,29.80,West,270,3.8,6.0,25,0.00,,,0.02,fowsr,2013-02-17 17:40:00,
2013-02-17 12:45:00,31.6,9.2,29.80,SW,225,3.8,6.0,25,0.00,,,0.02,fowsr,2013-02-17 17:45:00,
2013-02-17 12:50:00,31.5,9.0,29.80,West,270,3.8,5.4,25,0.00,,,0.02,fowsr,2013-02-17 17:50:00,
2013-02-17 12:55:00,31.5,9.6,29.80,WSW,247,5.4,9.2,26,0.00,,,0.02,fowsr,2013-02-17 17:55:00,
2013-02-17 13:00:00,31.5,9.0,29.80,West,270,4.5,7.6,25,0.00,,,0.02,fowsr,2013-02-17 18:00:00,
2013-02-17 13:05:00,32.0,8.9,29.80,West,270,3.8,8.3,24,0.00,,,0.02,fowsr,2013-02-17 18:05:00,
2013-02-17 13:10:00,31.3,8.3,29.80,West,270,4.5,9.2,24,0.00,,,0.02,fowsr,2013-02-17 18:10:00,
2013-02-17 13:15:00,30.4,8.1,29.80,NW,315,3.1,6.0,25,0.00,,,0.02,fowsr,2013-02-17 18:15:00,
2013-02-17 13:20:00,31.1,8.7,29.80,SE,135,2.2,3.8,25,0.00,,,0.02,fowsr,2013-02-17 18:20:00,
2013-02-17 13:25:00,30.7,7.8,29.80,West,270,6.9,10.7,24,0.00,,,0.02,fowsr,2013-02-17 18:25:00,
2013-02-17 13:30:00,29.8,7.7,29.80,West,270,5.4,9.2,25,0.00,,,0.02,fowsr,2013-02-17 18:30:00,
2013-02-17 13:35:00,29.3,7.8,29.81,North,0,3.1,10.7,26,0.00,,,0.02,fowsr,2013-02-17 18:35:00,
2013-02-17 13:45:00,30.6,9.4,29.81,NE,45,4.5,7.6,27,0.00,,,0.02,fowsr,2013-02-17 18:45:00,
2013-02-17 13:50:00,31.3,8.9,29.80,West,270,6.9,12.1,25,0.00,,,0.02,fowsr,2013-02-17 18:50:00,
2013-02-17 13:55:00,30.9,8.6,29.81,West,270,3.8,8.3,25,0.00,,,0.02,fowsr,2013-02-17 18:55:00,
2013-02-17 14:05:00,32.4,9.2,29.81,NNW,337,6.0,9.8,24,0.00,,,0.02,fowsr,2013-02-17 19:05:00,
2013-02-17 14:10:00,32.4,8.6,29.82,West,270,4.5,6.9,23,0.00,,,0.02,fowsr,2013-02-17 19:10:00,
2013-02-17 14:15:00,32.4,8.6,29.81,North,0,1.6,3.8,23,0.00,,,0.02,fowsr,2013-02-17 19:15:00,
2013-02-17 14:20:00,32.4,8.6,29.82,SW,225,5.4,12.1,23,0.00,,,0.02,fowsr,2013-02-17 19:20:00,
2013-02-17 14:25:00,31.1,8.1,29.82,WNW,292,4.5,6.9,24,0.00,,,0.02,fowsr,2013-02-17 19:25:00,
2013-02-17 14:30:00,30.2,8.0,29.82,West,270,3.1,4.5,25,0.00,,,0.02,fowsr,2013-02-17 19:30:00,
2013-02-17 14:40:00,31.3,9.5,29.82,NW,315,6.9,9.8,26,0.00,,,0.02,fowsr,2013-02-17 19:40:00,
2013-02-17 14:45:00,30.7,8.4,29.82,West,270,3.1,4.5,25,0.00,,,0.02,fowsr,2013-02-17 19:45:00,
2013-02-17 14:50:00,30.4,8.1,29.82,East,90,4.5,7.6,25,0.00,,,0.02,fowsr,2013-02-17 19:50:00,
2013-02-17 15:00:00,32.0,8.3,29.82,WNW,292,6.0,9.8,23,0.01,,,0.04,fowsr,2013-02-17 20:00:00,
2013-02-17 15:10:00,31.6,10.3,29.82,NE,45,4.5,7.6,27,0.01,,,0.04,fowsr,2013-02-17 20:10:00,
2013-02-17 15:15:00,32.4,9.8,29.82,West,270,3.8,6.9,25,0.01,,,0.04,fowsr,2013-02-17 20:15:00,
2013-02-17 15:20:00,33.1,10.4,29.82,NW,315,7.6,15.2,25,0.01,,,0.04,fowsr,2013-02-17 20:20:00,
2013-02-17 15:25:00,33.4,10.1,29.83,West,270,7.6,14.5,24,0.01,,,0.04,fowsr,2013-02-17 20:25:00,
2013-02-17 15:30:00,33.1,9.8,29.83,NW,315,3.8,5.4,24,0.01,,,0.04,fowsr,2013-02-17 20:30:00,
2013-02-17 15:35:00,32.5,9.9,29.83,West,270,3.1,6.0,25,0.01,,,0.04,fowsr,2013-02-17 20:35:00,
2013-02-17 15:40:00,32.2,10.2,29.83,NW,315,2.2,3.1,26,0.01,,,0.04,fowsr,2013-02-17 20:40:00,
2013-02-17 15:45:00,32.2,8.4,29.83,NW,315,4.5,6.0,23,0.01,,,0.04,fowsr,2013-02-17 20:45:00,
2013-02-17 15:50:00,31.8,8.7,29.84,NW,315,6.9,10.7,24,0.01,,,0.04,fowsr,2013-02-17 20:50:00,
2013-02-17 16:00:00,30.9,9.7,29.84,West,270,3.8,6.9,27,0.01,,,0.04,fowsr,2013-02-17 21:00:00,
2013-02-17 16:05:00,30.6,10.0,29.84,West,270,9.8,13.6,28,0.00,,,0.04,fowsr,2013-02-17 21:05:00,
2013-02-17 16:10:00,29.7,10.2,29.84,West,270,5.4,10.7,30,0.00,,,0.04,fowsr,2013-02-17 21:10:00,
2013-02-17 16:15:00,28.8,9.9,29.85,East,90,3.8,6.9,31,0.00,,,0.04,fowsr,2013-02-17 21:15:00,
2013-02-17 16:20:00,28.4,11.0,29.84,West,270,2.2,3.8,34,0.00,,,0.04,fowsr,2013-02-17 21:20:00,
2013-02-17 16:25:00,28.6,11.6,29.84,West,270,5.4,7.6,35,0.00,,,0.04,fowsr,2013-02-17 21:25:00,
2013-02-17 16:30:00,28.4,9.6,29.84,SW,225,6.0,9.8,31,0.00,,,0.04,fowsr,2013-02-17 21:30:00,
2013-02-17 16:35:00,28.4,9.6,29.85,NW,315,5.4,8.3,31,0.00,,,0.04,fowsr,2013-02-17 21:35:00,
2013-02-17 16:40:00,28.4,9.1,29.85,West,270,3.1,6.0,30,0.00,,,0.04,fowsr,2013-02-17 21:40:00,
2013-02-17 16:45:00,28.2,7.4,29.85,SW,225,2.2,3.8,27,0.00,,,0.04,fowsr,2013-02-17 21:45:00,
2013-02-17 16:50:00,28.0,7.8,29.86,West,270,3.8,5.4,28,0.00,,,0.04,fowsr,2013-02-17 21:50:00,
2013-02-17 16:55:00,27.7,8.0,29.86,West,270,4.5,7.6,29,0.00,,,0.04,fowsr,2013-02-17 21:55:00,
2013-02-17 17:05:00,27.1,7.0,29.86,WSW,247,3.1,6.0,28,0.00,,,0.04,fowsr,2013-02-17 22:05:00,
2013-02-17 17:10:00,27.1,6.5,29.86,NW,315,3.1,5.4,27,0.00,,,0.04,fowsr,2013-02-17 22:10:00,
2013-02-17 17:15:00,27.1,6.0,29.86,West,270,3.1,6.9,26,0.00,,,0.04,fowsr,2013-02-17 22:15:00,
2013-02-17 17:25:00,27.0,4.1,29.88,WSW,247,6.0,11.4,23,0.00,,,0.04,fowsr,2013-02-17 22:25:00,
2013-02-17 17:30:00,27.0,4.1,29.88,West,270,2.2,4.5,23,0.00,,,0.04,fowsr,2013-02-17 22:30:00,
2013-02-17 17:35:00,27.0,4.1,29.88,West,270,2.2,4.5,23,0.00,,,0.04,fowsr,2013-02-17 22:35:00,
2013-02-17 17:40:00,26.8,4.5,29.88,SW,225,3.8,6.0,24,0.00,,,0.04,fowsr,2013-02-17 22:40:00,
2013-02-17 17:45:00,26.8,3.9,29.89,West,270,6.9,15.2,23,0.00,,,0.04,fowsr,2013-02-17 22:45:00,
2013-02-17 17:50:00,26.8,3.9,29.89,NW,315,5.4,7.6,23,0.00,,,0.04,fowsr,2013-02-17 22:50:00,
2013-02-17 17:55:00,26.6,3.1,29.90,West,270,2.2,8.3,22,0.00,,,0.04,fowsr,2013-02-17 22:55:00,
2013-02-17 18:00:00,26.4,3.6,29.90,SW,225,3.1,8.3,23,0.00,,,0.04,fowsr,2013-02-17 23:00:00,
2013-02-17 18:05:00,26.4,3.0,29.90,West,270,4.5,9.8,22,0.00,,,0.04,fowsr,2013-02-17 23:05:00,
2013-02-17 18:10:00,26.2,2.8,29.90,SW,225,6.9,11.4,22,0.00,,,0.04,fowsr,2013-02-17 23:10:00,
2013-02-17 18:15:00,26.1,3.9,29.90,West,270,6.9,11.4,24,0.00,,,0.04,fowsr,2013-02-17 23:15:00,
2013-02-17 18:20:00,26.1,3.3,29.91,WSW,247,4.5,6.9,23,0.00,,,0.04,fowsr,2013-02-17 23:20:00,
2013-02-17 18:30:00,26.1,2.7,29.92,West,270,3.8,6.0,22,0.00,,,0.04,fowsr,2013-02-17 23:30:00,
2013-02-17 18:35:00,25.9,2.5,29.92,SW,225,3.1,5.4,22,0.00,,,0.04,fowsr,2013-02-17 23:35:00,
2013-02-17 18:40:00,25.9,2.5,29.92,West,270,4.5,8.3,22,0.00,,,0.04,fowsr,2013-02-17 23:40:00,
2013-02-17 18:45:00,25.7,2.4,29.93,South,180,4.5,13.6,22,0.00,,,0.04,fowsr,2013-02-17 23:45:00,
2013-02-17 18:50:00,25.5,2.2,29.93,WSW,247,3.1,6.0,22,0.00,,,0.04,fowsr,2013-02-17 23:50:00,
2013-02-17 18:55:00,25.3,2.1,29.93,NW,315,5.4,10.7,22,0.00,,,0.04,fowsr,2013-02-17 23:55:00,
2013-02-17 19:00:00,25.3,2.1,29.93,SW,225,3.1,6.0,22,0.00,,,0.04,fowsr,2013-02-18 00:00:00,
2013-02-17 19:10:00,25.2,1.9,29.93,SW,225,6.9,9.8,22,0.00,,,0.04,fowsr,2013-02-18 00:10:00,
2013-02-17 19:15:00,25.2,1.9,29.94,West,270,9.2,20.6,22,0.00,,,0.04,fowsr,2013-02-18 00:15:00,
2013-02-17 19:20:00,25.0,1.8,29.94,West,270,1.6,3.1,22,0.00,,,0.04,fowsr,2013-02-18 00:20:00,
2013-02-17 19:25:00,24.8,1.6,29.95,NW,315,6.0,9.8,22,0.00,,,0.04,fowsr,2013-02-18 00:25:00,
2013-02-17 19:35:00,24.4,1.9,29.95,West,270,4.5,7.6,23,0.00,,,0.04,fowsr,2013-02-18 00:35:00,
2013-02-17 19:45:00,24.3,1.8,29.96,NE,45,5.4,9.8,23,0.00,,,0.04,fowsr,2013-02-18 00:45:00,
2013-02-17 19:50:00,24.3,1.8,29.96,SW,225,2.2,5.4,23,0.00,,,0.04,fowsr,2013-02-18 00:50:00,
2013-02-17 20:00:00,23.9,1.5,29.97,NNW,337,4.5,6.9,23,0.00,,,0.04,fowsr,2013-02-18 01:00:00,
2013-02-17 20:05:00,23.9,1.5,29.98,WNW,292,2.2,4.5,23,0.00,,,0.04,fowsr,2013-02-18 01:05:00,
2013-02-17 20:10:00,23.7,1.3,29.98,SW,225,3.8,4.5,23,0.00,,,0.04,fowsr,2013-02-18 01:10:00,
2013-02-17 20:20:00,23.5,1.2,29.98,NW,315,3.8,5.4,23,0.00,,,0.04,fowsr,2013-02-18 01:20:00,
2013-02-17 20:25:00,23.4,1.6,29.98,West,270,3.1,4.5,24,0.00,,,0.04,fowsr,2013-02-18 01:25:00,
2013-02-17 20:30:00,23.4,1.0,29.98,East,90,3.1,6.9,23,0.00,,,0.04,fowsr,2013-02-18 01:30:00,
2013-02-17 20:40:00,23.2,0.9,29.99,NW,315,5.4,9.8,23,0.00,,,0.04,fowsr,2013-02-18 01:40:00,
2013-02-17 20:45:00,23.0,0.7,29.99,SW,225,5.4,9.2,23,0.00,,,0.04,fowsr,2013-02-18 01:45:00,
2013-02-17 20:55:00,22.8,1.2,30.00,SW,225,3.1,5.4,24,0.00,,,0.04,fowsr,2013-02-18 01:55:00,
2013-02-17 21:05:00,22.6,1.0,30.00,SW,225,8.3,10.7,24,0.00,,,0.04,fowsr,2013-02-18 02:05:00,
2013-02-17 21:10:00,22.6,1.0,30.01,SW,225,3.1,7.6,24,0.00,,,0.04,fowsr,2013-02-18 02:10:00,
2013-02-17 21:20:00,22.3,0.7,30.02,NE,45,3.8,6.0,24,0.00,,,0.04,fowsr,2013-02-18 02:20:00,
2013-02-17 21:25:00,21.9,0.4,30.02,NE,45,5.4,17.4,24,0.00,,,0.04,fowsr,2013-02-18 02:25:00,
2013-02-17 21:30:00,21.7,0.3,30.02,North,0,2.2,5.4,24,0.00,,,0.04,fowsr,2013-02-18 02:30:00,
2013-02-17 21:40:00,21.2,-0.2,30.03,East,90,1.6,3.8,24,0.00,,,0.04,fowsr,2013-02-18 02:40:00,
2013-02-17 21:45:00,21.0,0.2,30.03,WNW,292,3.8,7.6,25,0.00,,,0.04,fowsr,2013-02-18 02:45:00,
2013-02-17 21:55:00,20.7,-0.1,30.03,SW,225,3.8,10.7,25,0.00,,,0.04,fowsr,2013-02-18 02:55:00,
2013-02-17 22:00:00,20.5,-0.2,30.04,NW,315,5.4,6.9,25,0.00,,,0.04,fowsr,2013-02-18 03:00:00,
2013-02-17 22:10:00,20.3,0.2,30.05,NW,315,3.1,7.6,26,0.00,,,0.04,fowsr,2013-02-18 03:10:00,
2013-02-17 22:15:00,20.1,0.5,30.05,NW,315,7.6,15.9,27,0.00,,,0.04,fowsr,2013-02-18 03:15:00,
2013-02-17 22:20:00,20.1,0.5,30.05,WNW,292,3.8,6.9,27,0.00,,,0.04,fowsr,2013-02-18 03:20:00,
2013-02-17 22:25:00,20.1,0.5,30.05,NW,315,3.1,5.4,27,0.00,,,0.04,fowsr,2013-02-18 03:25:00,
2013-02-17 22:30:00,19.9,0.4,30.05,SW,225,5.4,9.8,27,0.00,,,0.04,fowsr,2013-02-18 03:30:00,
2013-02-17 22:35:00,19.9,0.9,30.05,West,270,2.2,4.5,28,0.00,,,0.04,fowsr,2013-02-18 03:35:00,
2013-02-17 22:40:00,19.9,0.9,30.05,SW,225,3.8,5.4,28,0.00,,,0.04,fowsr,2013-02-18 03:40:00,
2013-02-17 22:45:00,19.9,0.9,30.05,SW,225,4.5,9.8,28,0.00,,,0.04,fowsr,2013-02-18 03:45:00,
2013-02-17 22:55:00,19.9,0.9,30.06,East,90,3.1,3.8,28,0.00,,,0.04,fowsr,2013-02-18 03:55:00,
2013-02-17 23:00:00,19.9,0.9,30.06,NE,45,5.4,8.3,28,0.00,,,0.04,fowsr,2013-02-18 04:00:00,
2013-02-17 23:05:00,19.9,0.9,30.06,NE,45,5.4,8.3,28,0.00,,,0.04,fowsr,2013-02-18 04:05:00,
2013-02-17 23:10:00,19.8,0.7,30.06,West,270,2.2,4.5,28,0.00,,,0.04,fowsr,2013-02-18 04:10:00,
2013-02-17 23:20:00,19.6,1.1,30.06,North,0,3.8,6.0,29,0.00,,,0.04,fowsr,2013-02-18 04:20:00,
2013-02-17 23:25:00,19.6,1.5,30.07,SW,225,3.8,5.4,30,0.00,,,0.04,fowsr,2013-02-18 04:25:00,
2013-02-17 23:30:00,19.4,1.4,30.07,West,270,3.1,4.5,30,0.00,,,0.04,fowsr,2013-02-18 04:30:00,
2013-02-17 23:40:00,19.2,-0.2,30.07,SW,225,1.6,3.1,27,0.00,,,0.04,fowsr,2013-02-18 04:40:00,
2013-02-17 23:45:00,19.2,-0.2,30.08,NW,315,3.1,8.3,27,0.00,,,0.04,fowsr,2013-02-18 04:45:00,
2013-02-17 23:50:00,19.2,-0.2,30.08,SW,225,2.2,6.9,27,0.00,,,0.04,fowsr,2013-02-18 04:50:00,